Time;durP1;ratioP1;P1;durP2;ratioP2;P2;SDS_P1;SDS_P2;PMS_P1;PMS_P2;Temp;Humidity;BMP_temperature;BMP_pressure;BME280_temperature;BME280_humidity;BME280_pressure;Samples;Min_cycle;Max_cycle;Signal;HPM_P1;HPM_P2
2022/07/24 00:01:08;;;;;;;12.55;10.00;;;;;;;;;;5036447;28;20033;-69
2022/07/24 00:03:53;;;;;;;10.68;9.07;;;;;;;;;;5009043;28;20045;-70
2022/07/24 00:06:39;;;;;;;12.43;9.52;;;;;;;;;;5027085;28;20083;-69
2022/07/24 00:09:25;;;;;;;13.32;10.13;;;;;;;;;;5002178;28;20084;-69
2022/07/24 00:12:10;;;;;;;13.05;10.18;;;;;;;;;;4979974;28;20491;-70
2022/07/24 00:14:56;;;;;;;11.95;9.10;;;;;;;;;;5028531;28;20551;-69
2022/07/24 00:17:41;;;;;;;11.48;9.50;;;;;;;;;;5020416;28;20030;-70
2022/07/24 00:20:27;;;;;;;11.52;10.07;;;;;;;;;;5017553;28;20037;-71
2022/07/24 00:23:12;;;;;;;13.65;9.80;;;;;;;;;;5005265;28;20473;-70
2022/07/24 00:25:58;;;;;;;15.15;9.82;;;;;;;;;;5008120;28;20116;-71
2022/07/24 00:28:44;;;;;;;11.15;9.50;;;;;;;;;;5016284;28;20029;-71
2022/07/24 00:31:31;;;;;;;13.48;9.48;;;;;;;;;;5006478;28;20392;-69
2022/07/24 00:34:16;;;;;;;13.70;10.40;;;;;;;;;;5001786;28;20031;-70
2022/07/24 00:37:02;;;;;;;10.40;9.30;;;;;;;;;;5018592;28;20480;-69
2022/07/24 00:39:48;;;;;;;11.85;9.70;;;;;;;;;;4979674;28;20038;-76
2022/07/24 00:42:34;;;;;;;11.18;9.60;;;;;;;;;;5009483;28;20578;-75
2022/07/24 00:45:20;;;;;;;11.05;8.95;;;;;;;;;;5005297;28;20021;-75
2022/07/24 00:48:05;;;;;;;13.55;9.80;;;;;;;;;;5011294;28;20029;-76
2022/07/24 00:50:51;;;;;;;11.27;9.30;;;;;;;;;;5027868;28;20029;-77
2022/07/24 00:53:36;;;;;;;11.85;9.18;;;;;;;;;;5007065;28;20026;-72
2022/07/24 00:56:22;;;;;;;11.45;9.93;;;;;;;;;;4988460;28;20039;-74
2022/07/24 00:59:08;;;;;;;12.82;9.98;;;;;;;;;;5018951;28;20388;-75
2022/07/24 01:01:53;;;;;;;12.63;9.15;;;;;;;;;;5017479;28;20042;-74
2022/07/24 01:04:39;;;;;;;11.13;9.30;;;;;;;;;;5023780;28;20056;-74
2022/07/24 01:07:25;;;;;;;12.80;9.95;;;;;;;;;;5002458;28;20081;-74
2022/07/24 01:10:10;;;;;;;10.48;8.88;;;;;;;;;;5009533;28;20499;-75
2022/07/24 01:12:56;;;;;;;12.88;9.85;;;;;;;;;;5008402;28;20516;-74
2022/07/24 01:15:42;;;;;;;14.57;9.95;;;;;;;;;;5004815;28;20144;-70
2022/07/24 01:18:28;;;;;;;10.85;8.57;;;;;;;;;;5002135;28;20042;-70
2022/07/24 01:21:14;;;;;;;11.80;8.93;;;;;;;;;;4984951;28;20026;-69
2022/07/24 01:23:59;;;;;;;11.38;8.80;;;;;;;;;;5003109;28;20034;-70
2022/07/24 01:26:45;;;;;;;14.75;8.98;;;;;;;;;;5000083;28;20136;-70
2022/07/24 01:29:31;;;;;;;11.95;9.25;;;;;;;;;;5001180;28;20117;-70
2022/07/24 01:32:17;;;;;;;10.52;8.75;;;;;;;;;;4986663;28;20038;-72
2022/07/24 01:35:04;;;;;;;11.60;9.75;;;;;;;;;;4999418;28;20038;-76
2022/07/24 01:37:53;;;;;;;12.13;9.35;;;;;;;;;;4962386;28;20032;-74
2022/07/24 01:40:39;;;;;;;11.07;8.80;;;;;;;;;;4985704;28;20026;-74
2022/07/24 01:43:25;;;;;;;11.00;8.50;;;;;;;;;;5002040;28;20101;-74
2022/07/24 01:46:11;;;;;;;11.23;9.30;;;;;;;;;;5003976;28;20044;-74
2022/07/24 01:48:57;;;;;;;11.05;8.57;;;;;;;;;;5008054;28;20067;-74
2022/07/24 01:51:42;;;;;;;14.50;10.07;;;;;;;;;;4993361;28;20026;-74
2022/07/24 01:54:28;;;;;;;11.00;8.60;;;;;;;;;;5009490;28;20045;-74
2022/07/24 01:57:14;;;;;;;10.63;8.77;;;;;;;;;;4981430;28;20033;-73
2022/07/24 02:00:00;;;;;;;13.23;9.32;;;;;;;;;;4980275;28;20473;-75
2022/07/24 02:02:45;;;;;;;10.73;8.43;;;;;;;;;;4987635;28;20116;-75
2022/07/24 02:05:32;;;;;;;12.40;8.20;;;;;;;;;;5016195;28;20029;-74
2022/07/24 02:08:17;;;;;;;12.25;8.82;;;;;;;;;;5002199;28;20096;-72
2022/07/24 02:11:03;;;;;;;11.98;8.95;;;;;;;;;;4991431;28;20133;-73
2022/07/24 02:13:49;;;;;;;13.35;9.40;;;;;;;;;;4996903;28;20041;-72
2022/07/24 02:16:34;;;;;;;10.85;8.82;;;;;;;;;;4994126;28;20040;-72
2022/07/24 02:19:20;;;;;;;12.43;9.13;;;;;;;;;;4992675;28;20050;-72
2022/07/24 02:22:05;;;;;;;13.50;8.65;;;;;;;;;;4938040;28;20378;-72
2022/07/24 02:24:51;;;;;;;10.70;8.30;;;;;;;;;;4966891;28;20046;-72
2022/07/24 02:27:37;;;;;;;11.55;8.50;;;;;;;;;;4995860;28;20034;-72
2022/07/24 02:30:24;;;;;;;11.20;8.77;;;;;;;;;;4978407;28;20104;-73
2022/07/24 02:33:10;;;;;;;10.90;8.55;;;;;;;;;;4984109;28;20058;-75
2022/07/24 02:35:55;;;;;;;15.55;7.80;;;;;;;;;;4962745;28;20129;-74
2022/07/24 02:38:41;;;;;;;10.25;8.10;;;;;;;;;;4982099;28;20148;-74
2022/07/24 02:41:27;;;;;;;10.45;8.30;;;;;;;;;;4976517;28;20129;-74
2022/07/24 02:44:12;;;;;;;10.95;8.45;;;;;;;;;;4988770;28;20033;-74
2022/07/24 02:46:58;;;;;;;11.45;8.40;;;;;;;;;;5018981;28;20411;-72
2022/07/24 02:49:43;;;;;;;11.15;8.95;;;;;;;;;;5012153;28;20061;-73
2022/07/24 02:52:29;;;;;;;11.00;7.65;;;;;;;;;;4999821;28;20034;-72
2022/07/24 02:55:15;;;;;;;13.40;8.40;;;;;;;;;;5018064;28;20052;-72
2022/07/24 02:58:00;;;;;;;9.75;7.28;;;;;;;;;;4979557;28;20053;-73
2022/07/24 03:00:46;;;;;;;11.85;7.82;;;;;;;;;;4980912;28;20151;-72
2022/07/24 03:03:31;;;;;;;10.25;7.38;;;;;;;;;;4985568;28;20081;-70
2022/07/24 03:06:17;;;;;;;10.90;8.27;;;;;;;;;;4983775;28;20080;-71
2022/07/24 03:09:03;;;;;;;9.50;7.95;;;;;;;;;;4978259;28;20323;-71
2022/07/24 03:11:48;;;;;;;13.00;8.95;;;;;;;;;;4994697;28;20060;-70
2022/07/24 03:14:34;;;;;;;12.38;8.45;;;;;;;;;;5002452;28;20049;-71
2022/07/24 03:17:20;;;;;;;11.77;8.90;;;;;;;;;;5005283;28;20421;-71
2022/07/24 03:20:06;;;;;;;11.95;8.20;;;;;;;;;;5013365;28;20030;-72
2022/07/24 03:22:52;;;;;;;9.40;7.30;;;;;;;;;;4986594;28;20037;-72
2022/07/24 03:25:37;;;;;;;10.93;8.18;;;;;;;;;;4999566;28;20461;-72
2022/07/24 03:28:23;;;;;;;11.20;8.60;;;;;;;;;;5028649;28;20499;-72
2022/07/24 03:31:09;;;;;;;11.50;8.00;;;;;;;;;;5001418;28;20487;-72
2022/07/24 03:33:54;;;;;;;10.55;7.63;;;;;;;;;;5010206;28;20041;-72
2022/07/24 03:36:40;;;;;;;10.85;8.65;;;;;;;;;;4985588;28;20034;-72
2022/07/24 03:39:25;;;;;;;9.85;7.65;;;;;;;;;;4997445;28;20113;-75
2022/07/24 03:42:11;;;;;;;10.23;7.88;;;;;;;;;;5000557;28;20030;-71
2022/07/24 03:44:56;;;;;;;11.55;7.75;;;;;;;;;;5001248;28;20405;-71
2022/07/24 03:47:42;;;;;;;11.50;8.43;;;;;;;;;;4995844;28;20117;-70
2022/07/24 03:50:28;;;;;;;9.80;7.80;;;;;;;;;;4992802;28;20037;-70
2022/07/24 03:53:13;;;;;;;10.57;8.13;;;;;;;;;;4985791;28;20049;-70
2022/07/24 03:55:59;;;;;;;10.10;7.55;;;;;;;;;;4992084;28;20037;-71
2022/07/24 03:58:44;;;;;;;10.65;8.63;;;;;;;;;;4957280;28;20062;-74
2022/07/24 04:01:30;;;;;;;12.32;8.75;;;;;;;;;;4994318;28;20036;-70
2022/07/24 04:04:16;;;;;;;12.63;8.80;;;;;;;;;;5003200;28;20055;-69
2022/07/24 04:07:01;;;;;;;13.10;8.43;;;;;;;;;;5005144;28;20033;-70
2022/07/24 04:09:47;;;;;;;12.05;9.88;;;;;;;;;;5003962;28;20030;-70
2022/07/24 04:12:33;;;;;;;10.93;8.82;;;;;;;;;;5005341;28;20029;-69
2022/07/24 04:15:18;;;;;;;10.18;7.95;;;;;;;;;;5022664;28;20060;-70
2022/07/24 04:18:04;;;;;;;11.65;8.68;;;;;;;;;;4988140;28;20043;-74
2022/07/24 04:20:50;;;;;;;11.45;8.75;;;;;;;;;;5005304;28;20026;-72
2022/07/24 04:23:35;;;;;;;11.05;8.35;;;;;;;;;;5012192;28;20041;-71
2022/07/24 04:26:21;;;;;;;15.65;9.20;;;;;;;;;;4991830;28;20046;-72
2022/07/24 04:29:07;;;;;;;11.05;7.82;;;;;;;;;;4993564;28;20491;-72
2022/07/24 04:31:52;;;;;;;10.02;8.15;;;;;;;;;;4994739;28;20385;-72
2022/07/24 04:34:38;;;;;;;11.52;8.57;;;;;;;;;;4966777;28;20039;-71
2022/07/24 04:37:23;;;;;;;11.82;8.15;;;;;;;;;;4978801;28;20027;-70
2022/07/24 04:40:09;;;;;;;12.48;8.10;;;;;;;;;;4988675;28;20049;-69
2022/07/24 04:42:55;;;;;;;10.30;8.57;;;;;;;;;;5002591;28;20042;-70
2022/07/24 04:45:41;;;;;;;11.90;8.95;;;;;;;;;;4984688;28;20030;-70
2022/07/24 04:48:26;;;;;;;12.50;8.90;;;;;;;;;;4986500;28;20026;-69
2022/07/24 04:51:12;;;;;;;12.90;8.60;;;;;;;;;;4958589;28;20046;-70
2022/07/24 04:53:57;;;;;;;10.40;8.43;;;;;;;;;;4933381;28;22991;-67
2022/07/24 04:56:43;;;;;;;11.57;9.07;;;;;;;;;;4948162;28;20126;-70
2022/07/24 04:59:29;;;;;;;11.68;8.55;;;;;;;;;;4975579;28;20110;-69
2022/07/24 05:02:14;;;;;;;13.20;9.30;;;;;;;;;;4990934;28;20046;-69
2022/07/24 05:05:00;;;;;;;12.85;9.23;;;;;;;;;;4981894;28;20570;-70
2022/07/24 05:07:46;;;;;;;14.20;9.05;;;;;;;;;;4965513;28;20135;-69
2022/07/24 05:10:31;;;;;;;10.63;8.68;;;;;;;;;;4955368;28;20105;-69
2022/07/24 05:13:17;;;;;;;9.00;7.25;;;;;;;;;;4953334;28;20034;-74
2022/07/24 05:16:03;;;;;;;10.45;8.23;;;;;;;;;;4968444;28;20446;-75
2022/07/24 05:18:48;;;;;;;10.80;8.88;;;;;;;;;;4982914;28;20045;-73
2022/07/24 05:21:34;;;;;;;10.90;7.95;;;;;;;;;;4967475;28;20053;-74
2022/07/24 05:24:19;;;;;;;9.93;8.43;;;;;;;;;;4928328;28;20027;-74
2022/07/24 05:27:05;;;;;;;10.13;7.18;;;;;;;;;;4991570;28;20484;-73
2022/07/24 05:29:51;;;;;;;11.80;8.55;;;;;;;;;;4962721;28;20109;-73
2022/07/24 05:32:36;;;;;;;11.93;8.63;;;;;;;;;;4945743;28;20081;-68
2022/07/24 05:35:22;;;;;;;10.60;7.75;;;;;;;;;;4960705;28;20034;-68
2022/07/24 05:38:07;;;;;;;11.23;8.40;;;;;;;;;;4958262;28;20377;-69
2022/07/24 05:40:53;;;;;;;7.47;6.45;;;;;;;;;;4978985;28;20033;-68
2022/07/24 05:43:39;;;;;;;10.90;7.93;;;;;;;;;;4968941;28;20033;-73
2022/07/24 05:46:24;;;;;;;10.70;8.02;;;;;;;;;;4927309;28;20070;-69
2022/07/24 05:49:10;;;;;;;8.75;7.43;;;;;;;;;;4950440;28;20039;-72
2022/07/24 05:51:55;;;;;;;11.35;7.80;;;;;;;;;;4918017;28;20054;-71
2022/07/24 05:54:41;;;;;;;10.27;7.82;;;;;;;;;;4971397;28;20034;-71
2022/07/24 05:57:27;;;;;;;9.10;7.40;;;;;;;;;;5000430;28;20030;-72
2022/07/24 06:00:13;;;;;;;11.80;8.00;;;;;;;;;;4968788;28;20026;-72
2022/07/24 06:02:59;;;;;;;9.55;7.95;;;;;;;;;;4997248;28;20104;-71
2022/07/24 06:05:44;;;;;;;12.10;8.35;;;;;;;;;;5008623;28;20037;-71
2022/07/24 06:08:30;;;;;;;11.18;7.78;;;;;;;;;;4997333;28;20401;-71
2022/07/24 06:11:17;;;;;;;10.65;7.93;;;;;;;;;;4967812;28;20081;-73
2022/07/24 06:14:03;;;;;;;9.70;7.90;;;;;;;;;;4983738;28;20053;-73
2022/07/24 06:16:48;;;;;;;8.93;7.50;;;;;;;;;;4966205;28;20022;-74
2022/07/24 06:19:34;;;;;;;10.80;7.40;;;;;;;;;;4986110;28;20027;-74
2022/07/24 06:22:19;;;;;;;10.10;8.32;;;;;;;;;;5010524;28;20094;-74
2022/07/24 06:25:05;;;;;;;9.75;7.25;;;;;;;;;;4947901;28;20038;-73
2022/07/24 06:27:53;;;;;;;8.57;7.35;;;;;;;;;;4949542;28;20023;-68
2022/07/24 06:30:39;;;;;;;9.82;7.20;;;;;;;;;;4934379;28;20039;-68
2022/07/24 06:33:24;;;;;;;11.20;7.05;;;;;;;;;;4958259;28;20034;-73
2022/07/24 06:36:10;;;;;;;9.82;7.10;;;;;;;;;;4939863;28;20217;-69
2022/07/24 06:38:56;;;;;;;10.73;7.50;;;;;;;;;;4974188;28;20046;-68
2022/07/24 06:41:41;;;;;;;8.90;6.63;;;;;;;;;;4974336;28;20055;-67
2022/07/24 06:44:27;;;;;;;11.07;6.72;;;;;;;;;;4966737;28;20022;-69
2022/07/24 06:47:12;;;;;;;7.95;6.10;;;;;;;;;;4964017;28;20037;-67
2022/07/24 06:49:58;;;;;;;9.57;6.90;;;;;;;;;;4967235;28;20076;-68
2022/07/24 06:52:45;;;;;;;8.85;6.28;;;;;;;;;;4996726;28;20030;-66
2022/07/24 06:55:30;;;;;;;11.32;6.88;;;;;;;;;;4970777;28;20424;-68
2022/07/24 06:58:16;;;;;;;9.15;7.32;;;;;;;;;;4958829;28;20085;-68
2022/07/24 07:01:02;;;;;;;8.48;6.50;;;;;;;;;;4958261;28;20039;-68
2022/07/24 07:03:49;;;;;;;7.97;6.28;;;;;;;;;;4943124;28;20477;-69
2022/07/24 07:06:34;;;;;;;7.47;6.35;;;;;;;;;;4995972;28;20509;-73
2022/07/24 07:09:20;;;;;;;7.53;5.93;;;;;;;;;;4998444;28;20485;-73
2022/07/24 07:12:06;;;;;;;9.15;5.78;;;;;;;;;;4987502;28;20071;-74
2022/07/24 07:14:52;;;;;;;7.78;5.82;;;;;;;;;;4944611;28;20490;-74
2022/07/24 07:17:38;;;;;;;7.75;5.72;;;;;;;;;;4961384;28;20454;-73
2022/07/24 07:20:24;;;;;;;10.07;6.45;;;;;;;;;;4979189;28;20454;-74
2022/07/24 07:23:09;;;;;;;9.40;6.30;;;;;;;;;;4992119;28;20037;-72
2022/07/24 07:25:55;;;;;;;8.63;6.13;;;;;;;;;;4981134;28;20046;-72
2022/07/24 07:28:41;;;;;;;7.50;5.97;;;;;;;;;;4953544;28;20042;-71
2022/07/24 07:31:27;;;;;;;8.13;6.20;;;;;;;;;;4964599;28;20031;-71
2022/07/24 07:34:13;;;;;;;9.38;6.03;;;;;;;;;;4967767;28;20117;-72
2022/07/24 07:36:58;;;;;;;8.50;6.07;;;;;;;;;;4996168;28;20046;-72
2022/07/24 07:39:44;;;;;;;10.18;6.80;;;;;;;;;;4997286;28;20030;-74
2022/07/24 07:42:30;;;;;;;9.50;6.20;;;;;;;;;;4996189;28;20401;-71
2022/07/24 07:45:15;;;;;;;8.40;6.15;;;;;;;;;;4970496;28;20035;-71
2022/07/24 07:48:02;;;;;;;9.45;6.55;;;;;;;;;;4967693;28;20042;-71
2022/07/24 07:50:47;;;;;;;8.68;6.07;;;;;;;;;;4973147;28;20034;-71
2022/07/24 07:53:33;;;;;;;9.55;6.55;;;;;;;;;;4984395;28;20045;-76
2022/07/24 07:56:20;;;;;;;9.88;6.10;;;;;;;;;;4983844;28;20481;-71
2022/07/24 07:59:05;;;;;;;8.23;6.20;;;;;;;;;;4978895;28;20038;-73
2022/07/24 08:01:51;;;;;;;8.07;6.03;;;;;;;;;;4983137;28;20019;-75
2022/07/24 08:04:36;;;;;;;7.93;6.20;;;;;;;;;;5005703;28;20042;-75
2022/07/24 08:07:22;;;;;;;8.68;6.75;;;;;;;;;;5021210;28;20037;-75
2022/07/24 08:10:08;;;;;;;7.30;6.43;;;;;;;;;;5015955;28;20046;-74
2022/07/24 08:12:53;;;;;;;7.07;5.75;;;;;;;;;;5008447;28;20504;-75
2022/07/24 08:15:39;;;;;;;8.57;7.68;;;;;;;;;;5009750;28;20389;-74
2022/07/24 08:18:24;;;;;;;9.80;7.10;;;;;;;;;;4999387;28;20026;-72
2022/07/24 08:21:10;;;;;;;8.73;7.43;;;;;;;;;;5002331;28;20037;-71
2022/07/24 08:23:55;;;;;;;9.07;6.68;;;;;;;;;;5023539;28;20523;-72
2022/07/24 08:26:41;;;;;;;11.13;6.97;;;;;;;;;;5020363;28;20125;-70
2022/07/24 08:29:28;;;;;;;11.32;6.82;;;;;;;;;;4999104;28;20084;-73
2022/07/24 08:32:14;;;;;;;10.85;7.43;;;;;;;;;;5019937;28;20516;-70
2022/07/24 08:34:59;;;;;;;8.15;6.43;;;;;;;;;;5023717;28;20037;-74
2022/07/24 08:37:45;;;;;;;8.63;6.60;;;;;;;;;;5039563;28;20029;-74
2022/07/24 08:40:35;;;;;;;8.43;6.70;;;;;;;;;;5011374;28;20384;-74
2022/07/24 08:43:21;;;;;;;8.80;6.63;;;;;;;;;;5001563;28;20404;-74
2022/07/24 08:46:08;;;;;;;7.90;6.25;;;;;;;;;;5002785;28;20482;-74
2022/07/24 08:48:54;;;;;;;10.93;6.30;;;;;;;;;;4995251;28;20042;-74
2022/07/24 08:51:41;;;;;;;9.57;5.93;;;;;;;;;;4996005;28;20049;-72
2022/07/24 08:54:26;;;;;;;7.60;6.00;;;;;;;;;;5014702;28;20392;-74
2022/07/24 08:57:12;;;;;;;7.70;6.00;;;;;;;;;;5009495;28;20388;-75
2022/07/24 08:59:59;;;;;;;7.32;5.82;;;;;;;;;;4958360;28;20109;-71
2022/07/24 09:02:46;;;;;;;10.50;6.35;;;;;;;;;;4984529;28;20085;-71
2022/07/24 09:05:34;;;;;;;8.20;6.05;;;;;;;;;;4984893;28;20062;-72
2022/07/24 09:08:20;;;;;;;9.27;5.78;;;;;;;;;;5014371;28;20026;-71
2022/07/24 09:11:06;;;;;;;6.72;5.68;;;;;;;;;;5006861;28;20074;-74
2022/07/24 09:17:03;;;;;;;9.48;6.65;;;;;;;;;;5031211;28;20033;-75
2022/07/24 09:19:49;;;;;;;7.68;5.88;;;;;;;;;;5032932;28;20427;-74
2022/07/24 09:22:36;;;;;;;8.98;6.28;;;;;;;;;;5024314;28;20448;-74
2022/07/24 09:25:24;;;;;;;9.70;6.05;;;;;;;;;;5033832;28;20025;-75
2022/07/24 09:28:09;;;;;;;9.95;6.55;;;;;;;;;;5014397;28;20040;-74
2022/07/24 09:31:00;;;;;;;7.32;6.28;;;;;;;;;;5003009;28;20073;-71
2022/07/24 09:33:46;;;;;;;8.63;6.47;;;;;;;;;;5021115;28;20021;-69
2022/07/24 09:36:32;;;;;;;8.55;6.65;;;;;;;;;;5002397;28;20033;-69
2022/07/24 09:39:17;;;;;;;9.02;5.95;;;;;;;;;;5001758;28;20029;-68
2022/07/24 09:42:05;;;;;;;9.38;6.25;;;;;;;;;;5007840;28;20068;-70
2022/07/24 09:44:56;;;;;;;8.05;5.90;;;;;;;;;;5007166;28;20105;-69
2022/07/24 09:47:43;;;;;;;8.27;5.47;;;;;;;;;;4999456;28;20048;-70
2022/07/24 09:50:30;;;;;;;7.75;6.28;;;;;;;;;;4979930;28;20034;-73
2022/07/24 09:53:17;;;;;;;7.35;6.18;;;;;;;;;;4993247;28;20554;-75
2022/07/24 09:56:11;;;;;;;8.25;5.93;;;;;;;;;;5000645;28;20674;-74
2022/07/24 09:58:59;;;;;;;8.20;6.07;;;;;;;;;;5018171;28;20353;-74
2022/07/24 10:01:46;;;;;;;7.75;5.80;;;;;;;;;;5014758;28;20034;-73
2022/07/24 10:04:34;;;;;;;9.40;5.80;;;;;;;;;;5003303;28;20045;-74
2022/07/24 10:07:20;;;;;;;9.80;6.13;;;;;;;;;;4988124;28;20051;-71
2022/07/24 10:10:06;;;;;;;10.38;6.38;;;;;;;;;;4987564;28;20037;-72
2022/07/24 10:12:52;;;;;;;8.05;5.93;;;;;;;;;;5016227;28;20037;-71
2022/07/24 10:15:50;;;;;;;8.60;6.25;;;;;;;;;;5014669;28;20039;-71
2022/07/24 10:18:45;;;;;;;8.23;6.20;;;;;;;;;;5005434;28;20080;-71
2022/07/24 10:21:30;;;;;;;7.43;5.97;;;;;;;;;;4991426;28;20606;-71
2022/07/24 10:24:34;;;;;;;9.45;6.10;;;;;;;;;;4999326;28;20037;-78
2022/07/24 10:27:20;;;;;;;10.07;6.45;;;;;;;;;;5014086;28;20476;-74
2022/07/24 10:30:07;;;;;;;8.70;6.35;;;;;;;;;;5019505;28;20045;-74
2022/07/24 10:32:53;;;;;;;10.27;6.40;;;;;;;;;;4994727;28;20516;-74
2022/07/24 10:35:39;;;;;;;8.20;5.95;;;;;;;;;;4971151;28;20058;-74
2022/07/24 10:38:32;;;;;;;7.43;5.93;;;;;;;;;;5018167;28;20025;-74
2022/07/24 10:41:22;;;;;;;8.02;5.60;;;;;;;;;;4990552;28;20041;-74
2022/07/24 10:44:17;;;;;;;9.20;6.60;;;;;;;;;;4954835;28;20129;-72
2022/07/24 10:47:06;;;;;;;7.93;5.90;;;;;;;;;;4977817;28;20188;-74
2022/07/24 10:49:53;;;;;;;7.43;6.03;;;;;;;;;;4997971;28;20014;-74
2022/07/24 10:52:41;;;;;;;8.32;5.95;;;;;;;;;;5018230;28;20125;-73
2022/07/24 10:55:30;;;;;;;8.75;6.45;;;;;;;;;;5014054;28;20041;-73
2022/07/24 10:58:16;;;;;;;8.18;6.32;;;;;;;;;;4978053;28;20088;-73
2022/07/24 11:01:02;;;;;;;10.07;6.30;;;;;;;;;;5026812;28;20043;-74
2022/07/24 11:03:50;;;;;;;11.05;6.15;;;;;;;;;;5027693;28;20026;-74
2022/07/24 11:06:43;;;;;;;7.67;5.90;;;;;;;;;;5018431;28;20127;-68
2022/07/24 11:09:29;;;;;;;7.47;6.05;;;;;;;;;;5001326;28;20260;-69
2022/07/24 11:12:25;;;;;;;8.25;5.97;;;;;;;;;;5021087;28;20021;-69
2022/07/24 11:18:15;;;;;;;8.30;5.80;;;;;;;;;;4989745;28;20377;-67
2022/07/24 11:21:00;;;;;;;7.30;5.47;;;;;;;;;;5007502;28;20033;-73
2022/07/24 11:24:06;;;;;;;9.55;6.32;;;;;;;;;;5014416;28;20033;-73
2022/07/24 11:26:52;;;;;;;8.75;6.32;;;;;;;;;;5004177;28;20069;-73
2022/07/24 11:29:38;;;;;;;10.07;6.68;;;;;;;;;;5013018;28;20036;-73
2022/07/24 11:32:27;;;;;;;9.75;6.50;;;;;;;;;;5036573;28;20388;-76
2022/07/24 11:35:13;;;;;;;8.65;6.65;;;;;;;;;;5022922;28;20076;-74
2022/07/24 11:38:00;;;;;;;8.00;6.15;;;;;;;;;;5018520;28;20026;-72
2022/07/24 11:40:46;;;;;;;9.05;6.35;;;;;;;;;;5021180;28;20380;-75
2022/07/24 11:43:33;;;;;;;8.25;6.45;;;;;;;;;;5038095;28;20029;-74
2022/07/24 11:46:34;;;;;;;7.90;6.18;;;;;;;;;;5041576;28;20028;-75
2022/07/24 11:49:20;;;;;;;12.25;6.30;;;;;;;;;;5032522;28;34429;-74
2022/07/24 11:52:06;;;;;;;8.10;6.18;;;;;;;;;;5040802;28;20112;-74
2022/07/24 11:54:52;;;;;;;8.13;6.05;;;;;;;;;;5022082;28;20041;-75
2022/07/24 11:57:39;;;;;;;10.80;6.50;;;;;;;;;;5039149;28;20041;-73
2022/07/24 12:00:26;;;;;;;11.68;5.90;;;;;;;;;;5037836;28;20024;-74
2022/07/24 12:03:12;;;;;;;8.25;6.50;;;;;;;;;;5039927;28;20036;-74
2022/07/24 12:05:57;;;;;;;9.52;6.30;;;;;;;;;;5034781;28;20036;-74
2022/07/24 12:08:43;;;;;;;6.68;5.88;;;;;;;;;;5010687;28;20072;-74
2022/07/24 12:11:32;;;;;;;8.32;6.03;;;;;;;;;;5018726;28;20136;-74
2022/07/24 12:14:21;;;;;;;8.25;6.20;;;;;;;;;;5021082;28;20044;-73
2022/07/24 12:17:06;;;;;;;10.60;6.32;;;;;;;;;;5017612;28;20057;-71
2022/07/24 12:19:54;;;;;;;8.75;5.82;;;;;;;;;;4978239;28;20129;-70
2022/07/24 12:22:40;;;;;;;9.38;6.20;;;;;;;;;;4993676;28;20040;-70
2022/07/24 12:25:26;;;;;;;6.43;5.38;;;;;;;;;;4986693;28;20362;-70
2022/07/24 12:28:12;;;;;;;7.78;5.95;;;;;;;;;;4990517;28;20315;-70
2022/07/24 12:31:05;;;;;;;7.15;5.45;;;;;;;;;;4995819;28;20038;-71
2022/07/24 12:33:54;;;;;;;6.93;5.55;;;;;;;;;;5010460;28;20734;-67
2022/07/24 12:36:40;;;;;;;6.25;5.22;;;;;;;;;;4998365;28;20451;-74
2022/07/24 12:39:26;;;;;;;6.93;5.38;;;;;;;;;;4994059;28;20053;-73
2022/07/24 12:42:12;;;;;;;8.00;5.15;;;;;;;;;;4999831;28;20038;-73
2022/07/24 12:45:08;;;;;;;8.30;5.68;;;;;;;;;;5014810;28;20091;-73
2022/07/24 12:48:06;;;;;;;8.07;5.68;;;;;;;;;;5021566;28;20035;-73
2022/07/24 12:51:09;;;;;;;7.00;5.70;;;;;;;;;;5006636;28;20112;-73
2022/07/24 12:53:55;;;;;;;10.50;6.43;;;;;;;;;;5020035;28;20029;-70
2022/07/24 12:56:41;;;;;;;8.10;5.72;;;;;;;;;;5023979;28;20025;-71
2022/07/24 12:59:34;;;;;;;9.90;6.25;;;;;;;;;;5021853;28;20465;-70
2022/07/24 13:02:24;;;;;;;8.15;5.97;;;;;;;;;;5017441;28;20396;-70
2022/07/24 13:05:09;;;;;;;8.07;6.13;;;;;;;;;;5041417;28;20044;-70
2022/07/24 13:07:55;;;;;;;10.00;5.78;;;;;;;;;;5040202;28;20119;-70
2022/07/24 13:10:41;;;;;;;10.10;6.50;;;;;;;;;;5033998;28;20037;-70
2022/07/24 13:13:27;;;;;;;9.95;6.47;;;;;;;;;;5031494;28;20453;-71
2022/07/24 13:16:12;;;;;;;7.40;5.90;;;;;;;;;;5005609;28;20067;-69
2022/07/24 13:18:58;;;;;;;8.60;6.75;;;;;;;;;;5024617;28;20112;-70
2022/07/24 13:21:45;;;;;;;7.50;5.80;;;;;;;;;;5023297;28;20042;-70
2022/07/24 13:24:32;;;;;;;7.95;5.97;;;;;;;;;;5034247;28;20109;-70
2022/07/24 13:27:18;;;;;;;9.48;6.22;;;;;;;;;;5019987;28;20406;-70
2022/07/24 13:30:04;;;;;;;10.30;6.35;;;;;;;;;;5036597;28;20033;-71
2022/07/24 13:32:49;;;;;;;7.68;6.22;;;;;;;;;;5035437;28;20532;-74
2022/07/24 13:35:35;;;;;;;7.32;5.60;;;;;;;;;;5018027;28;20041;-75
2022/07/24 13:38:21;;;;;;;7.60;5.88;;;;;;;;;;5023337;28;20037;-77
2022/07/24 13:41:06;;;;;;;7.10;5.75;;;;;;;;;;5020695;28;20068;-76
2022/07/24 13:43:52;;;;;;;8.25;6.03;;;;;;;;;;5005801;28;25368;-77
2022/07/24 13:46:38;;;;;;;10.43;6.07;;;;;;;;;;5019088;28;20036;-74
2022/07/24 13:49:23;;;;;;;8.88;6.22;;;;;;;;;;5023752;28;20060;-71
2022/07/24 13:52:09;;;;;;;7.18;5.78;;;;;;;;;;5033370;28;20026;-72
2022/07/24 13:54:54;;;;;;;8.30;5.88;;;;;;;;;;4977287;28;20478;-74
2022/07/24 13:57:40;;;;;;;8.20;5.57;;;;;;;;;;4999258;28;20088;-73
2022/07/24 14:00:26;;;;;;;8.98;6.22;;;;;;;;;;5000001;28;20033;-73
2022/07/24 14:03:11;;;;;;;7.60;5.50;;;;;;;;;;5032519;28;20037;-73
2022/07/24 14:05:58;;;;;;;8.82;6.28;;;;;;;;;;4995479;28;20049;-73
2022/07/24 14:08:43;;;;;;;8.82;6.07;;;;;;;;;;5001551;28;20117;-74
2022/07/24 14:11:29;;;;;;;8.40;6.18;;;;;;;;;;5011024;28;20077;-73
2022/07/24 14:14:15;;;;;;;7.32;5.78;;;;;;;;;;4980703;28;20402;-74
2022/07/24 14:17:01;;;;;;;12.07;6.93;;;;;;;;;;4979113;28;20033;-75
2022/07/24 14:19:46;;;;;;;7.72;6.05;;;;;;;;;;5001484;28;20034;-74
2022/07/24 14:22:32;;;;;;;8.80;6.00;;;;;;;;;;4972135;28;20053;-73
2022/07/24 14:25:18;;;;;;;9.32;5.82;;;;;;;;;;4974216;28;20397;-71
2022/07/24 14:28:04;;;;;;;10.13;6.47;;;;;;;;;;4958792;28;20150;-74
2022/07/24 14:30:49;;;;;;;8.45;6.13;;;;;;;;;;4968607;28;20078;-74
2022/07/24 14:33:35;;;;;;;8.57;5.40;;;;;;;;;;4997173;28;20039;-74
2022/07/24 14:36:21;;;;;;;6.88;5.60;;;;;;;;;;4988377;28;20038;-73
2022/07/24 14:39:06;;;;;;;8.30;6.35;;;;;;;;;;4997846;28;20029;-73
2022/07/24 14:41:53;;;;;;;9.45;5.78;;;;;;;;;;5003017;28;20064;-73
2022/07/24 14:44:38;;;;;;;6.97;5.88;;;;;;;;;;5014759;28;20041;-69
2022/07/24 14:47:24;;;;;;;7.70;5.93;;;;;;;;;;5015503;28;20183;-70
2022/07/24 14:50:10;;;;;;;8.27;6.00;;;;;;;;;;4987959;28;20030;-70
2022/07/24 14:52:55;;;;;;;8.07;6.28;;;;;;;;;;4991568;28;20119;-70
2022/07/24 14:55:41;;;;;;;11.25;6.95;;;;;;;;;;5023840;28;20037;-70
2022/07/24 14:58:27;;;;;;;9.15;6.80;;;;;;;;;;5001527;28;20041;-70
2022/07/24 15:01:12;;;;;;;7.07;5.95;;;;;;;;;;4990566;28;20033;-69
2022/07/24 15:03:58;;;;;;;6.88;5.70;;;;;;;;;;5032581;28;20075;-70
2022/07/24 15:06:43;;;;;;;8.75;5.65;;;;;;;;;;5010326;28;20076;-71
2022/07/24 15:09:29;;;;;;;7.13;5.70;;;;;;;;;;5028043;28;20499;-71
2022/07/24 15:12:15;;;;;;;8.35;6.03;;;;;;;;;;5010069;28;20460;-71
2022/07/24 15:15:00;;;;;;;9.27;5.93;;;;;;;;;;4997785;28;20389;-70
2022/07/24 15:17:46;;;;;;;6.05;5.05;;;;;;;;;;4976528;28;20038;-70
2022/07/24 15:20:31;;;;;;;7.68;5.60;;;;;;;;;;4996643;28;20064;-75
2022/07/24 15:23:17;;;;;;;9.40;6.05;;;;;;;;;;4981901;28;20060;-72
2022/07/24 15:26:03;;;;;;;8.80;5.95;;;;;;;;;;4986845;28;20030;-72
2022/07/24 15:28:49;;;;;;;9.05;5.80;;;;;;;;;;5004164;28;20432;-71
2022/07/24 15:31:35;;;;;;;7.80;5.68;;;;;;;;;;4997658;28;21260;-70
2022/07/24 15:34:20;;;;;;;7.82;5.70;;;;;;;;;;4973837;28;20027;-70
2022/07/24 15:37:06;;;;;;;7.80;6.35;;;;;;;;;;4977319;28;20030;-73
2022/07/24 15:39:51;;;;;;;7.85;5.70;;;;;;;;;;5000613;28;20036;-73
2022/07/24 15:42:37;;;;;;;9.15;6.10;;;;;;;;;;5026400;28;20040;-74
2022/07/24 15:45:23;;;;;;;10.73;5.85;;;;;;;;;;4999570;28;20032;-73
2022/07/24 15:48:08;;;;;;;8.43;5.85;;;;;;;;;;5011923;28;20033;-72
2022/07/24 15:50:54;;;;;;;8.05;6.15;;;;;;;;;;4979831;28;20042;-73
2022/07/24 15:53:40;;;;;;;8.52;5.97;;;;;;;;;;4986519;28;20490;-74
2022/07/24 15:56:25;;;;;;;6.85;5.65;;;;;;;;;;4991155;28;20535;-73
2022/07/24 15:59:11;;;;;;;9.20;5.40;;;;;;;;;;5000609;28;20033;-70
2022/07/24 16:01:56;;;;;;;7.07;5.30;;;;;;;;;;4984568;28;20034;-69
2022/07/24 16:04:42;;;;;;;6.32;4.93;;;;;;;;;;5012198;28;20048;-71
2022/07/24 16:07:27;;;;;;;7.97;5.47;;;;;;;;;;4998164;28;20084;-71
2022/07/24 16:10:13;;;;;;;8.77;5.70;;;;;;;;;;4968612;28;20026;-69
2022/07/24 16:12:59;;;;;;;7.38;6.05;;;;;;;;;;4971155;28;20040;-69
2022/07/24 16:15:44;;;;;;;8.02;6.30;;;;;;;;;;4995956;28;20038;-75
2022/07/24 16:18:34;;;;;;;8.27;5.40;;;;;;;;;;5009676;28;20163;-71
2022/07/24 16:21:19;;;;;;;7.85;6.15;;;;;;;;;;4996381;28;20033;-72
2022/07/24 16:24:05;;;;;;;9.07;6.35;;;;;;;;;;4994042;28;20133;-72
2022/07/24 16:26:51;;;;;;;7.15;5.43;;;;;;;;;;4999778;28;21279;-72
2022/07/24 16:29:36;;;;;;;7.10;5.70;;;;;;;;;;4995191;28;20038;-74
2022/07/24 16:32:22;;;;;;;7.57;5.88;;;;;;;;;;4987718;28;20519;-73
2022/07/24 16:35:08;;;;;;;11.55;6.35;;;;;;;;;;5002646;28;20129;-77